createdAt,value
2018-04-06T00:00:10.556Z,0.00
2018-04-06T00:01:10.499Z,0.00
2018-04-06T00:02:10.452Z,0.00
2018-04-06T00:03:10.412Z,0.00
2018-04-06T00:04:10.382Z,0.00
2018-04-06T00:05:10.324Z,0.00
2018-04-06T00:06:10.291Z,0.00
2018-04-06T00:07:10.245Z,0.00
2018-04-06T00:08:10.185Z,0.00
2018-04-06T00:09:10.172Z,0.00
2018-04-06T00:10:10.137Z,0.00
2018-04-06T00:11:10.074Z,0.00
2018-04-06T00:12:10.022Z,0.00
2018-04-06T00:13:10.062Z,0.00
2018-04-06T00:14:09.938Z,0.00
2018-04-06T00:15:09.880Z,0.00
2018-04-06T00:16:09.847Z,0.00
2018-04-06T00:17:09.789Z,0.00
2018-04-06T00:18:09.768Z,0.00
2018-04-06T00:19:09.717Z,0.00
2018-04-06T00:20:09.673Z,0.00
2018-04-06T00:21:09.650Z,0.00
2018-04-06T00:22:09.586Z,0.00
2018-04-06T00:23:09.526Z,0.00
2018-04-06T00:24:09.493Z,0.00
2018-04-06T00:25:09.436Z,0.00
2018-04-06T00:26:09.403Z,0.00
2018-04-06T00:27:09.372Z,0.00
2018-04-06T00:28:09.334Z,0.00
2018-04-06T00:29:09.266Z,0.00
2018-04-06T00:30:09.236Z,0.00
2018-04-06T00:31:09.169Z,0.00
2018-04-06T00:32:09.160Z,0.00
2018-04-06T00:33:09.153Z,0.00
2018-04-06T00:34:09.047Z,0.00
2018-04-06T00:35:08.998Z,0.00
2018-04-06T00:36:08.978Z,0.00
2018-04-06T00:37:08.911Z,0.00
2018-04-06T00:38:08.892Z,0.00
2018-04-06T00:39:08.874Z,0.00
2018-04-06T00:40:08.790Z,0.00
2018-04-06T00:41:08.801Z,0.00
2018-04-06T00:42:08.689Z,0.00
2018-04-06T00:43:08.666Z,0.00
2018-04-06T00:44:08.605Z,0.00
2018-04-06T00:45:08.570Z,0.00
2018-04-06T00:46:08.540Z,0.00
2018-04-06T00:47:08.516Z,0.00
2018-04-06T00:48:08.421Z,0.00
2018-04-06T00:49:08.383Z,0.00
2018-04-06T00:50:08.328Z,0.00
2018-04-06T00:51:08.282Z,0.00
2018-04-06T00:52:08.251Z,0.00
2018-04-06T00:53:08.186Z,0.00
2018-04-06T00:54:08.149Z,0.00
2018-04-06T00:55:08.110Z,0.00
2018-04-06T00:56:08.089Z,0.00
2018-04-06T00:57:08.027Z,0.00
2018-04-06T00:58:08.018Z,0.00
2018-04-06T00:59:07.947Z,0.00
2018-04-06T01:00:07.889Z,0.00
2018-04-06T01:01:07.825Z,0.00
2018-04-06T01:02:07.812Z,0.00
2018-04-06T01:03:07.763Z,0.00
2018-04-06T01:04:07.708Z,0.00
2018-04-06T01:05:07.670Z,0.00
2018-04-06T01:06:07.639Z,0.00
2018-04-06T01:07:07.575Z,0.00
2018-04-06T01:08:07.527Z,0.00
2018-04-06T01:09:07.493Z,0.00
2018-04-06T01:10:07.454Z,0.00
2018-04-06T01:11:07.401Z,0.00
2018-04-06T01:12:07.345Z,0.00
2018-04-06T01:13:07.322Z,0.00
2018-04-06T01:14:07.237Z,0.00
2018-04-06T01:15:07.212Z,0.00
2018-04-06T01:16:07.170Z,0.00
2018-04-06T01:17:07.133Z,0.00
2018-04-06T01:18:07.076Z,0.00
2018-04-06T01:19:07.025Z,0.00
2018-04-06T01:20:06.978Z,0.00
2018-04-06T01:21:06.942Z,0.00
2018-04-06T01:22:06.896Z,0.00
2018-04-06T01:23:06.849Z,0.00
2018-04-06T01:24:06.823Z,0.00
2018-04-06T01:25:06.775Z,0.00
2018-04-06T01:26:06.720Z,0.00
2018-04-06T01:27:06.684Z,0.00
2018-04-06T01:28:06.636Z,0.00
2018-04-06T01:29:06.625Z,0.00
2018-04-06T01:30:06.514Z,0.00
2018-04-06T01:31:06.509Z,0.00
2018-04-06T01:32:06.423Z,0.00
2018-04-06T01:33:06.411Z,0.00
2018-04-06T01:34:06.363Z,0.00
2018-04-06T01:35:06.328Z,0.00
2018-04-06T01:36:06.236Z,0.00
2018-04-06T01:37:06.218Z,0.00
2018-04-06T01:38:06.149Z,0.00
2018-04-06T01:39:06.121Z,0.00
2018-04-06T01:40:06.089Z,0.00
2018-04-06T01:41:06.017Z,0.00
2018-04-06T01:42:05.980Z,0.00
2018-04-06T01:43:05.949Z,0.00
2018-04-06T01:44:05.906Z,0.00
2018-04-06T01:45:05.844Z,0.00
2018-04-06T01:46:05.816Z,0.00
2018-04-06T01:47:05.750Z,0.00
2018-04-06T01:48:05.743Z,0.00
2018-04-06T01:49:05.655Z,0.00
2018-04-06T01:50:05.625Z,0.00
2018-04-06T01:51:05.550Z,0.00
2018-04-06T01:52:05.510Z,0.00
2018-04-06T01:53:05.464Z,0.00
2018-04-06T01:54:05.436Z,0.00
2018-04-06T01:55:05.401Z,0.00
2018-04-06T01:56:05.366Z,0.00
2018-04-06T01:57:05.323Z,0.00
2018-04-06T01:58:05.258Z,0.00
2018-04-06T01:59:05.190Z,0.00
2018-04-06T02:00:05.167Z,0.00
2018-04-06T02:01:05.105Z,0.00
2018-04-06T02:02:05.100Z,0.00
2018-04-06T02:03:05.020Z,0.00
2018-04-06T02:04:04.977Z,0.00
2018-04-06T02:05:04.931Z,0.00
2018-04-06T02:06:04.881Z,0.00
2018-04-06T02:07:04.866Z,0.00
2018-04-06T02:08:04.799Z,0.00
2018-04-06T02:09:04.748Z,0.00
2018-04-06T02:10:04.722Z,0.00
2018-04-06T02:11:04.702Z,0.00
2018-04-06T02:12:04.621Z,0.00
2018-04-06T02:13:04.566Z,0.00
2018-04-06T02:14:04.524Z,0.00
2018-04-06T02:15:04.474Z,0.00
2018-04-06T02:16:04.452Z,0.00
2018-04-06T02:17:04.382Z,0.00
2018-04-06T02:18:04.313Z,0.00
2018-04-06T02:19:04.275Z,0.00
2018-04-06T02:20:04.230Z,0.00
2018-04-06T02:21:04.240Z,0.00
2018-04-06T02:22:04.148Z,0.00
2018-04-06T02:23:04.104Z,0.00
2018-04-06T02:24:04.053Z,0.00
2018-04-06T02:25:04.008Z,0.00
2018-04-06T02:26:04.011Z,0.00
2018-04-06T02:27:03.953Z,0.00
2018-04-06T02:28:03.919Z,0.00
2018-04-06T02:29:03.806Z,0.00
2018-04-06T02:30:03.793Z,0.00
2018-04-06T02:31:03.746Z,0.00
2018-04-06T02:32:03.674Z,0.00
2018-04-06T02:33:03.637Z,0.00
2018-04-06T02:34:03.598Z,0.00
2018-04-06T02:35:03.576Z,0.00
2018-04-06T02:36:03.486Z,0.00
2018-04-06T02:37:03.455Z,0.00
2018-04-06T02:38:03.416Z,0.00
2018-04-06T02:39:03.366Z,0.00
2018-04-06T02:40:03.343Z,0.00
2018-04-06T02:41:03.303Z,0.00
2018-04-06T02:42:03.219Z,0.00
2018-04-06T02:43:03.218Z,0.00
2018-04-06T02:44:03.128Z,0.00
2018-04-06T02:45:03.101Z,0.00
2018-04-06T02:46:03.034Z,0.00
2018-04-06T02:47:03.010Z,0.00
2018-04-06T02:48:02.940Z,0.00
2018-04-06T02:49:02.915Z,0.00
2018-04-06T02:50:02.844Z,0.00
2018-04-06T02:51:02.803Z,0.00
2018-04-06T02:52:02.773Z,0.00
2018-04-06T02:53:02.707Z,0.00
2018-04-06T02:54:02.680Z,0.00
2018-04-06T02:55:02.608Z,0.00
2018-04-06T02:56:02.593Z,0.00
2018-04-06T02:57:02.529Z,0.00
2018-04-06T02:58:02.503Z,0.00
2018-04-06T02:59:02.442Z,0.00
2018-04-06T03:00:02.394Z,0.00
2018-04-06T03:01:02.355Z,0.00
2018-04-06T03:02:02.320Z,0.00
2018-04-06T03:03:02.315Z,0.00
2018-04-06T03:04:02.202Z,0.00
2018-04-06T03:05:02.166Z,0.00
2018-04-06T03:06:02.117Z,0.00
2018-04-06T03:07:02.061Z,0.00
2018-04-06T03:08:02.054Z,0.00
2018-04-06T03:09:01.967Z,0.00
2018-04-06T03:10:01.959Z,0.00
2018-04-06T03:11:01.913Z,0.00
2018-04-06T03:12:01.905Z,0.00
2018-04-06T03:13:01.781Z,0.00
2018-04-06T03:14:01.750Z,0.00
2018-04-06T03:15:01.697Z,0.00
2018-04-06T03:16:01.667Z,0.00
2018-04-06T03:17:01.668Z,0.00
2018-04-06T03:18:01.551Z,0.00
2018-04-06T03:19:01.512Z,0.00
2018-04-06T03:20:01.474Z,0.00
2018-04-06T03:21:01.418Z,0.00
2018-04-06T03:22:01.389Z,0.00
2018-04-06T03:23:01.347Z,0.00
2018-04-06T03:24:01.258Z,0.00
2018-04-06T03:25:01.234Z,0.00
2018-04-06T03:26:01.198Z,0.00
2018-04-06T03:27:01.156Z,0.00
2018-04-06T03:28:01.103Z,0.00
2018-04-06T03:29:01.178Z,0.00
2018-04-06T03:30:01.003Z,0.00
2018-04-06T03:31:00.964Z,0.00
2018-04-06T03:32:00.916Z,0.00
2018-04-06T03:33:00.903Z,0.00
2018-04-06T03:34:00.811Z,0.00
2018-04-06T03:35:00.850Z,0.00
2018-04-06T03:36:00.704Z,0.00
2018-04-06T03:37:00.681Z,0.00
2018-04-06T03:38:00.630Z,0.00
2018-04-06T03:39:00.574Z,0.00
2018-04-06T03:40:00.528Z,0.00
2018-04-06T03:41:00.500Z,0.00
2018-04-06T03:42:00.463Z,0.00
2018-04-06T03:43:00.391Z,0.00
2018-04-06T03:44:00.338Z,0.00
2018-04-06T03:45:00.329Z,0.00
2018-04-06T03:46:00.243Z,0.00
2018-04-06T03:47:00.212Z,0.00
2018-04-06T03:48:00.151Z,0.00
2018-04-06T03:49:00.134Z,0.00
2018-04-06T03:50:00.076Z,0.00
2018-04-06T03:51:00.053Z,0.00
2018-04-06T03:51:59.994Z,0.00
2018-04-06T03:52:59.936Z,0.00
2018-04-06T03:53:59.896Z,0.00
2018-04-06T03:54:59.845Z,0.00
2018-04-06T03:55:59.802Z,0.00
2018-04-06T03:56:59.783Z,0.00
2018-04-06T03:57:59.758Z,0.00
2018-04-06T03:58:59.679Z,0.00
2018-04-06T03:59:59.596Z,0.00
2018-04-06T04:00:59.574Z,0.00
2018-04-06T04:01:59.521Z,0.00
2018-04-06T04:02:59.460Z,4.00
2018-04-06T04:03:59.434Z,4.00
2018-04-06T04:04:59.374Z,4.00
2018-04-06T04:05:59.320Z,4.00
2018-04-06T04:06:59.267Z,4.00
2018-04-06T04:07:59.226Z,4.00
2018-04-06T04:08:59.181Z,8.00
2018-04-06T04:09:59.146Z,8.00
2018-04-06T04:10:59.145Z,8.00
2018-04-06T04:11:59.058Z,8.00
2018-04-06T04:12:59.022Z,8.00
2018-04-06T04:13:58.964Z,16.00
2018-04-06T04:14:58.902Z,16.00
2018-04-06T04:15:58.879Z,20.00
2018-04-06T04:16:58.852Z,28.00
2018-04-06T04:17:58.767Z,32.00
2018-04-06T04:18:58.734Z,36.00
2018-04-06T04:19:58.680Z,44.00
2018-04-06T04:20:58.651Z,52.00
2018-04-06T04:21:58.580Z,60.00
2018-04-06T04:22:58.535Z,68.00
2018-04-06T04:23:58.464Z,80.00
2018-04-06T04:24:58.450Z,92.00
2018-04-06T04:25:58.391Z,108.00
2018-04-06T04:26:58.360Z,124.00
2018-04-06T04:27:58.331Z,144.00
2018-04-06T04:28:58.246Z,164.00
2018-04-06T04:29:58.203Z,188.00
2018-04-06T04:30:58.153Z,216.00
2018-04-06T04:31:58.112Z,240.00
2018-04-06T04:32:58.060Z,272.00
2018-04-06T04:33:58.165Z,308.00
2018-04-06T04:34:57.987Z,340.00
2018-04-06T04:35:58.013Z,380.00
2018-04-06T04:36:57.884Z,420.00
2018-04-06T04:37:57.844Z,464.00
2018-04-06T04:38:57.785Z,508.00
2018-04-06T04:39:57.731Z,560.00
2018-04-06T04:40:57.711Z,608.00
2018-04-06T04:41:57.650Z,664.00
2018-04-06T04:42:57.581Z,720.00
2018-04-06T04:43:57.571Z,780.00
2018-04-06T04:44:57.503Z,844.00
2018-04-06T04:45:57.519Z,904.00
2018-04-06T04:46:57.413Z,976.00
2018-04-06T04:47:57.363Z,1044.00
2018-04-06T04:49:10.145Z,1116.00
2018-04-06T04:51:09.726Z,1272.00
2018-04-06T04:52:09.997Z,1352.00
2018-04-06T04:54:03.023Z,1500.00
2018-04-06T04:55:02.523Z,1576.00
2018-04-06T04:57:00.594Z,1732.00
2018-04-06T04:58:00.849Z,1812.00
2018-04-06T04:59:53.905Z,1960.00
2018-04-06T05:00:53.607Z,2040.00
2018-04-06T05:02:46.905Z,2188.00
2018-04-06T05:03:46.388Z,2272.00
2018-04-06T05:05:39.522Z,2428.00
2018-04-06T05:06:39.288Z,2508.00
2018-04-06T05:08:32.770Z,2656.00
2018-04-06T05:09:32.310Z,2788.00
2018-04-06T05:11:25.719Z,3128.00
2018-04-06T05:12:25.369Z,3056.00
2018-04-06T05:14:36.159Z,3164.00
2018-04-06T05:15:35.919Z,3248.00
2018-04-06T05:16:35.880Z,3320.00
2018-04-06T05:17:35.979Z,3396.00
2018-04-06T05:18:36.220Z,3468.00
2018-04-06T05:19:35.791Z,3544.00
2018-04-06T05:20:35.712Z,3620.00
2018-04-06T05:21:35.673Z,3692.00
2018-04-06T05:22:35.606Z,3764.00
2018-04-06T05:23:35.555Z,3828.00
2018-04-06T05:24:35.538Z,3896.00
2018-04-06T05:25:35.462Z,3960.00
2018-04-06T05:26:35.447Z,4024.00
2018-04-06T05:27:35.351Z,4084.00
2018-04-06T05:28:35.351Z,4148.00
2018-04-06T05:29:35.265Z,4204.00
2018-04-06T05:30:35.240Z,4264.00
2018-04-06T05:31:35.168Z,4328.00
2018-04-06T05:32:35.121Z,4392.00
2018-04-06T05:33:35.104Z,4480.00
2018-04-06T05:34:35.067Z,4652.00
2018-04-06T05:35:34.988Z,4616.00
2018-04-06T05:36:34.962Z,4624.00
2018-04-06T05:37:34.891Z,4680.00
2018-04-06T05:38:34.846Z,4716.00
2018-04-06T05:39:34.849Z,4800.00
2018-04-06T05:40:34.794Z,4876.00
2018-04-06T05:41:34.743Z,4912.00
2018-04-06T05:42:34.683Z,4956.00
2018-04-06T05:43:34.632Z,5048.00
2018-04-06T05:44:34.583Z,5532.00
2018-04-06T05:45:34.588Z,5808.00
2018-04-06T05:46:34.477Z,5392.00
2018-04-06T05:47:34.514Z,5452.00
2018-04-06T05:48:34.402Z,5356.00
2018-04-06T05:49:34.348Z,5372.00
2018-04-06T05:50:34.315Z,5492.00
2018-04-06T05:51:34.280Z,5520.00
2018-04-06T05:52:34.246Z,5540.00
2018-04-06T05:53:34.181Z,5568.00
2018-04-06T05:54:34.126Z,5760.00
2018-04-06T05:55:34.077Z,6420.00
2018-04-06T05:56:34.031Z,7548.00
2018-04-06T05:57:34.029Z,10376.00
2018-04-06T05:58:33.926Z,11332.00
2018-04-06T05:59:33.882Z,8940.00
2018-04-06T06:00:33.847Z,7968.00
2018-04-06T06:01:33.815Z,6848.00
2018-04-06T06:02:33.748Z,6732.00
2018-04-06T06:03:33.726Z,7456.00
2018-04-06T06:04:33.663Z,7532.00
2018-04-06T06:05:33.608Z,8168.00
2018-04-06T06:06:33.570Z,7604.00
2018-04-06T06:07:33.525Z,8452.00
2018-04-06T06:08:33.479Z,8768.00
2018-04-06T06:09:33.452Z,8680.00
2018-04-06T06:10:33.399Z,10944.00
2018-04-06T06:11:33.342Z,10396.00
2018-04-06T06:12:33.286Z,9184.00
2018-04-06T06:13:33.319Z,11536.00
2018-04-06T06:14:33.269Z,13460.00
2018-04-06T06:15:33.186Z,11592.00
2018-04-06T06:16:33.105Z,10816.00
2018-04-06T06:17:33.096Z,9288.00
2018-04-06T06:18:33.019Z,7752.00
2018-04-06T06:19:32.999Z,7520.00
2018-04-06T06:20:32.955Z,7824.00
2018-04-06T06:21:32.903Z,8484.00
2018-04-06T06:22:32.854Z,9300.00
2018-04-06T06:23:32.833Z,9540.00
2018-04-06T06:24:32.760Z,8272.00
2018-04-06T06:25:32.756Z,8184.00
2018-04-06T06:26:32.700Z,8484.00
2018-04-06T06:27:32.635Z,7416.00
2018-04-06T06:28:32.584Z,7364.00
2018-04-06T06:29:32.597Z,7800.00
2018-04-06T06:30:32.492Z,8008.00
2018-04-06T06:31:32.466Z,8340.00
2018-04-06T06:32:32.432Z,9024.00
2018-04-06T06:33:32.386Z,9184.00
2018-04-06T06:34:32.343Z,9760.00
2018-04-06T06:35:32.348Z,11248.00
2018-04-06T06:36:32.226Z,11988.00
2018-04-06T06:37:32.186Z,11940.00
2018-04-06T06:38:32.147Z,11972.00
2018-04-06T06:39:32.130Z,10856.00
2018-04-06T06:40:32.077Z,9924.00
2018-04-06T06:41:32.043Z,9688.00
2018-04-06T06:42:31.988Z,9344.00
2018-04-06T06:43:31.938Z,10156.00
2018-04-06T06:44:31.906Z,9848.00
2018-04-06T06:45:31.866Z,9036.00
2018-04-06T06:46:31.870Z,8812.00
2018-04-06T06:47:31.784Z,9772.00
2018-04-06T06:48:31.720Z,10900.00
2018-04-06T06:49:31.698Z,11868.00
2018-04-06T06:50:31.681Z,15816.00
2018-04-06T06:51:31.600Z,26688.00
2018-04-06T06:52:31.558Z,34560.00
2018-04-06T06:53:31.542Z,42944.00
2018-04-06T06:54:31.484Z,51648.00
2018-04-06T06:55:31.431Z,76000.00
2018-04-06T06:56:31.416Z,76544.00
2018-04-06T06:57:31.343Z,54240.00
2018-04-06T06:58:31.341Z,46816.00
2018-04-06T06:59:31.277Z,37120.00
2018-04-06T07:00:31.227Z,34848.00
2018-04-06T07:01:31.205Z,36256.00
2018-04-06T07:02:31.160Z,35808.00
2018-04-06T07:03:31.123Z,33952.00
2018-04-06T07:04:31.069Z,33472.00
2018-04-06T07:05:31.030Z,33376.00
2018-04-06T07:06:30.985Z,33760.00
2018-04-06T07:07:30.987Z,33440.00
2018-04-06T07:08:30.911Z,33632.00
2018-04-06T07:09:30.928Z,32896.00
2018-04-06T07:10:30.947Z,30336.00
2018-04-06T07:11:30.810Z,29984.00
2018-04-06T07:12:30.777Z,28864.00
2018-04-06T07:13:30.760Z,29184.00
2018-04-06T07:14:30.733Z,29632.00
2018-04-06T07:15:30.692Z,31520.00
2018-04-06T07:16:30.652Z,43776.00
2018-04-06T07:17:30.634Z,55104.00
2018-04-06T07:18:30.623Z,57600.00
2018-04-06T07:19:30.575Z,56736.00
2018-04-06T07:20:30.549Z,59136.00
2018-04-06T07:21:30.486Z,59296.00
2018-04-06T07:22:30.473Z,59744.00
2018-04-06T07:23:30.449Z,57632.00
2018-04-06T07:24:30.405Z,49120.00
2018-04-06T07:25:30.370Z,44448.00
2018-04-06T07:26:30.359Z,45248.00
2018-04-06T07:27:30.322Z,58240.00
2018-04-06T07:28:30.307Z,62080.00
2018-04-06T07:29:30.284Z,64384.00
2018-04-06T07:30:30.242Z,64064.00
2018-04-06T07:31:30.225Z,61024.00
2018-04-06T07:32:30.215Z,61792.00
2018-04-06T07:33:30.177Z,61312.00
2018-04-06T07:34:30.148Z,61600.00
2018-04-06T07:35:30.114Z,61728.00
2018-04-06T07:36:30.074Z,58816.00
2018-04-06T07:37:30.071Z,59744.00
2018-04-06T07:38:30.044Z,60896.00
2018-04-06T07:39:29.994Z,62496.00
2018-04-06T07:40:29.988Z,66432.00
2018-04-06T07:41:29.961Z,65856.00
2018-04-06T07:42:29.942Z,64704.00
2018-04-06T07:43:29.901Z,63104.00
2018-04-06T07:44:29.901Z,61760.00
2018-04-06T07:45:29.863Z,63648.00
2018-04-06T07:46:29.827Z,65440.00
2018-04-06T07:47:29.859Z,63072.00
2018-04-06T07:48:29.792Z,65888.00
2018-04-06T07:49:29.769Z,69600.00
2018-04-06T07:50:29.769Z,71008.00
2018-04-06T07:51:29.782Z,72032.00
2018-04-06T07:52:29.713Z,71424.00
2018-04-06T07:53:29.699Z,73248.00
2018-04-06T07:54:29.755Z,76256.00
2018-04-06T07:55:29.633Z,77632.00
2018-04-06T07:56:29.580Z,76736.00
2018-04-06T07:57:29.579Z,75616.00
2018-04-06T07:58:29.547Z,74176.00
2018-04-06T07:59:29.514Z,75168.00
2018-04-06T08:00:29.667Z,71936.00
2018-04-06T08:01:29.503Z,62016.00
2018-04-06T08:02:29.444Z,61888.00
2018-04-06T08:03:29.413Z,63808.00
2018-04-06T08:04:29.436Z,68192.00
2018-04-06T08:05:29.360Z,67680.00
2018-04-06T08:06:29.351Z,74496.00
2018-04-06T08:07:29.331Z,76384.00
2018-04-06T08:08:29.295Z,74368.00
2018-04-06T08:09:29.331Z,77312.00
2018-04-06T08:10:29.275Z,70496.00
2018-04-06T08:11:29.242Z,81120.00
2018-04-06T08:12:29.201Z,71520.00
2018-04-06T08:13:29.223Z,56192.00
2018-04-06T08:14:29.167Z,60640.00
2018-04-06T08:15:29.128Z,60576.00
2018-04-06T08:16:29.137Z,82784.00
2018-04-06T08:17:29.112Z,83808.00
2018-04-06T08:18:29.043Z,76064.00
2018-04-06T08:19:29.028Z,61376.00
2018-04-06T08:20:29.014Z,70624.00
2018-04-06T08:21:28.985Z,79264.00
2018-04-06T08:22:28.959Z,76576.00
2018-04-06T08:23:28.957Z,76224.00
2018-04-06T08:24:28.920Z,76416.00
2018-04-06T08:25:28.892Z,76960.00
2018-04-06T08:26:28.913Z,77888.00
2018-04-06T08:27:28.826Z,71456.00
2018-04-06T08:28:30.695Z,50592.00
2018-04-06T08:29:28.793Z,54080.00
2018-04-06T08:30:28.777Z,82048.00
2018-04-06T08:31:28.755Z,92960.00
2018-04-06T08:32:28.690Z,90912.00
2018-04-06T08:33:28.670Z,91744.00
2018-04-06T08:34:28.654Z,75744.00
2018-04-06T08:35:28.627Z,68288.00
2018-04-06T08:36:28.640Z,70656.00
2018-04-06T08:37:28.574Z,85344.00
2018-04-06T08:38:28.538Z,84608.00
2018-04-06T08:39:28.541Z,87360.00
2018-04-06T08:40:28.512Z,87040.00
2018-04-06T08:41:28.487Z,83488.00
2018-04-06T08:42:28.460Z,79904.00
2018-04-06T08:43:28.460Z,77888.00
2018-04-06T08:44:28.419Z,82432.00
2018-04-06T08:45:28.393Z,91168.00
2018-04-06T08:46:28.363Z,87456.00
2018-04-06T08:47:28.363Z,84960.00
2018-04-06T08:48:28.317Z,80800.00
2018-04-06T08:49:28.286Z,83136.00
2018-04-06T08:50:28.273Z,86272.00
2018-04-06T08:51:28.262Z,89792.00
2018-04-06T08:52:28.230Z,87392.00
2018-04-06T08:53:28.201Z,82432.00
2018-04-06T08:54:28.156Z,80576.00
2018-04-06T08:55:28.142Z,86112.00
2018-04-06T08:56:28.119Z,85216.00
2018-04-06T08:57:28.123Z,84576.00
2018-04-06T08:58:28.064Z,85792.00
2018-04-06T08:59:28.029Z,80576.00
2018-04-06T09:00:28.028Z,80448.00
2018-04-06T09:01:28.000Z,80480.00
2018-04-06T09:02:27.992Z,78304.00
2018-04-06T09:03:27.981Z,83136.00
2018-04-06T09:04:27.910Z,89920.00
2018-04-06T09:05:27.892Z,91712.00
2018-04-06T09:06:27.869Z,93952.00
2018-04-06T09:07:27.851Z,93248.00
2018-04-06T09:08:27.949Z,97088.00
2018-04-06T09:09:27.838Z,100320.00
2018-04-06T09:10:27.810Z,99232.00
2018-04-06T09:11:27.749Z,93024.00
2018-04-06T09:12:27.741Z,87296.00
2018-04-06T09:13:27.709Z,86752.00
2018-04-06T09:14:27.701Z,85792.00
2018-04-06T09:15:27.667Z,81760.00
2018-04-06T09:16:27.630Z,79072.00
2018-04-06T09:17:27.630Z,82432.00
2018-04-06T09:18:27.594Z,84576.00
2018-04-06T09:19:27.550Z,88032.00
2018-04-06T09:20:27.545Z,92832.00
2018-04-06T09:21:27.517Z,92128.00
2018-04-06T09:22:27.507Z,93888.00
2018-04-06T09:23:27.472Z,95648.00
2018-04-06T09:24:27.466Z,99456.00
2018-04-06T09:25:27.428Z,93856.00
2018-04-06T09:26:27.403Z,81280.00
2018-04-06T09:27:27.360Z,75392.00
2018-04-06T09:28:27.320Z,76512.00
2018-04-06T09:29:27.317Z,81792.00
2018-04-06T09:30:27.292Z,77440.00
2018-04-06T09:31:27.270Z,75744.00
2018-04-06T09:32:27.262Z,69056.00
2018-04-06T09:33:27.209Z,76032.00
2018-04-06T09:34:27.266Z,85440.00
2018-04-06T09:35:27.162Z,84544.00
2018-04-06T09:36:27.149Z,80992.00
2018-04-06T09:37:27.101Z,78656.00
2018-04-06T09:38:27.079Z,85696.00
2018-04-06T09:39:27.060Z,84992.00
2018-04-06T09:40:27.037Z,94368.00
2018-04-06T09:41:27.033Z,100320.00
2018-04-06T09:42:26.980Z,95904.00
2018-04-06T09:43:26.985Z,97376.00
2018-04-06T09:44:26.966Z,93536.00
2018-04-06T09:45:26.960Z,89248.00
2018-04-06T09:46:26.896Z,84000.00
2018-04-06T09:47:26.868Z,84480.00
2018-04-06T09:48:26.861Z,88544.00
2018-04-06T09:49:26.838Z,93408.00
2018-04-06T09:50:26.833Z,89312.00
2018-04-06T09:51:26.770Z,96320.00
2018-04-06T09:52:26.776Z,97088.00
2018-04-06T09:53:26.727Z,94656.00
2018-04-06T09:54:26.727Z,99872.00
2018-04-06T09:55:26.668Z,104384.00
2018-04-06T09:56:26.667Z,107328.00
2018-04-06T09:57:26.663Z,106016.00
2018-04-06T09:58:26.626Z,106272.00
2018-04-06T09:59:26.601Z,100032.00
2018-04-06T10:00:26.573Z,88384.00
2018-04-06T10:01:26.549Z,88192.00
2018-04-06T10:02:26.531Z,86400.00
2018-04-06T10:03:26.594Z,90944.00
2018-04-06T10:04:26.460Z,94848.00
2018-04-06T10:05:26.461Z,94016.00
2018-04-06T10:06:26.427Z,94912.00
2018-04-06T10:07:26.381Z,99072.00
2018-04-06T10:08:26.361Z,97024.00
2018-04-06T10:09:26.381Z,99136.00
2018-04-06T10:10:26.382Z,98880.00
2018-04-06T10:11:26.313Z,99552.00
2018-04-06T10:12:26.263Z,90496.00
2018-04-06T10:13:26.268Z,87584.00
2018-04-06T10:14:26.236Z,95392.00
2018-04-06T10:15:26.230Z,93664.00
2018-04-06T10:16:26.175Z,101600.00
2018-04-06T10:17:26.176Z,98592.00
2018-04-06T10:18:26.138Z,98432.00
2018-04-06T10:19:26.114Z,105152.00
2018-04-06T10:20:26.109Z,108544.00
2018-04-06T10:21:26.054Z,107168.00
2018-04-06T10:22:26.056Z,96480.00
2018-04-06T10:23:26.004Z,89696.00
2018-04-06T10:24:25.995Z,96928.00
2018-04-06T10:25:25.996Z,92736.00
2018-04-06T10:26:25.982Z,98368.00
2018-04-06T10:27:25.948Z,101568.00
2018-04-06T10:28:25.903Z,107616.00
2018-04-06T10:29:25.892Z,100864.00
2018-04-06T10:30:25.879Z,95520.00
2018-04-06T10:31:25.833Z,91936.00
2018-04-06T10:32:25.856Z,94304.00
2018-04-06T10:33:25.817Z,96576.00
2018-04-06T10:34:25.765Z,108032.00
2018-04-06T10:35:25.765Z,106880.00
2018-04-06T10:36:25.714Z,104224.00
2018-04-06T10:37:25.691Z,107584.00
2018-04-06T10:38:25.692Z,102016.00
2018-04-06T10:39:25.635Z,101088.00
2018-04-06T10:40:25.634Z,106752.00
2018-04-06T10:41:25.603Z,112928.00
2018-04-06T10:42:25.569Z,101984.00
2018-04-06T10:43:25.568Z,104896.00
2018-04-06T10:44:25.514Z,109248.00
2018-04-06T10:45:25.496Z,118240.00
2018-04-06T10:46:25.469Z,114176.00
2018-04-06T10:47:25.455Z,95264.00
2018-04-06T10:48:25.426Z,86528.00
2018-04-06T10:49:25.394Z,88320.00
2018-04-06T10:50:25.373Z,105056.00
2018-04-06T10:51:25.364Z,109344.00
2018-04-06T10:52:25.314Z,120224.00
2018-04-06T10:53:25.329Z,119712.00
2018-04-06T10:54:25.270Z,120576.00
2018-04-06T10:55:25.249Z,119744.00
2018-04-06T10:56:25.220Z,114176.00
2018-04-06T10:57:25.190Z,109184.00
2018-04-06T10:58:25.167Z,103520.00
2018-04-06T10:59:25.189Z,115904.00
2018-04-06T11:00:25.167Z,123456.00
2018-04-06T11:01:25.133Z,115488.00
2018-04-06T11:02:25.179Z,101760.00
2018-04-06T11:03:25.056Z,91328.00
2018-04-06T11:04:25.054Z,93408.00
2018-04-06T11:05:25.009Z,110016.00
2018-04-06T11:06:24.983Z,121504.00
2018-04-06T11:07:24.992Z,120864.00
2018-04-06T11:08:24.944Z,117696.00
2018-04-06T11:09:24.997Z,116992.00
2018-04-06T11:10:24.919Z,114560.00
2018-04-06T11:11:24.864Z,104704.00
2018-04-06T11:12:24.838Z,100544.00
2018-04-06T11:13:24.842Z,103968.00
2018-04-06T11:14:24.777Z,100416.00
2018-04-06T11:15:24.880Z,100320.00
2018-04-06T11:16:24.790Z,97280.00
2018-04-06T11:17:24.734Z,95488.00
2018-04-06T11:18:24.692Z,93312.00
2018-04-06T11:19:24.772Z,97280.00
2018-04-06T11:20:24.664Z,96224.00
2018-04-06T11:21:24.637Z,106688.00
2018-04-06T11:22:24.642Z,115392.00
2018-04-06T11:23:24.589Z,116128.00
2018-04-06T11:24:24.561Z,100800.00
2018-04-06T11:25:24.518Z,93088.00
2018-04-06T11:26:24.519Z,97376.00
2018-04-06T11:27:24.486Z,107424.00
2018-04-06T11:28:24.440Z,112448.00
2018-04-06T11:29:24.424Z,112704.00
2018-04-06T11:30:24.411Z,103424.00
2018-04-06T11:31:24.376Z,98624.00
2018-04-06T11:32:24.342Z,107648.00
2018-04-06T11:33:24.363Z,119680.00
2018-04-06T11:34:24.303Z,118048.00
2018-04-06T11:35:24.304Z,113120.00
2018-04-06T11:36:24.278Z,115936.00
2018-04-06T11:37:24.266Z,115328.00
2018-04-06T11:38:24.193Z,102368.00
2018-04-06T11:39:24.217Z,98720.00
2018-04-06T11:40:24.176Z,103008.00
2018-04-06T11:41:24.136Z,115392.00
2018-04-06T11:42:24.105Z,116032.00
2018-04-06T11:43:24.090Z,114528.00
2018-04-06T11:44:24.081Z,118592.00
2018-04-06T11:45:24.055Z,119040.00
2018-04-06T11:46:24.035Z,111776.00
2018-04-06T11:47:24.076Z,102912.00
2018-04-06T11:48:23.981Z,100576.00
2018-04-06T11:49:23.947Z,109024.00
2018-04-06T11:50:23.906Z,119904.00
2018-04-06T11:51:23.892Z,121664.00
2018-04-06T11:52:23.877Z,111744.00
2018-04-06T11:53:23.885Z,104448.00
2018-04-06T11:54:23.807Z,104064.00
2018-04-06T11:55:23.803Z,99264.00
2018-04-06T11:56:23.789Z,102112.00
2018-04-06T11:57:23.736Z,117152.00
2018-04-06T11:58:23.716Z,91936.00
2018-04-06T11:59:23.691Z,53280.00
2018-04-06T12:00:23.692Z,47328.00
2018-04-06T12:01:23.741Z,45696.00
2018-04-06T12:02:23.645Z,46432.00
2018-04-06T12:03:23.605Z,48032.00
2018-04-06T12:04:23.577Z,45440.00
2018-04-06T12:05:23.556Z,45280.00
2018-04-06T12:06:23.531Z,43040.00
2018-04-06T12:07:23.505Z,46400.00
2018-04-06T12:08:23.473Z,44608.00
2018-04-06T12:09:23.480Z,43936.00
2018-04-06T12:10:23.447Z,51200.00
2018-04-06T12:11:23.425Z,48992.00
2018-04-06T12:12:23.391Z,47200.00
2018-04-06T12:13:23.375Z,52352.00
2018-04-06T12:14:23.330Z,54432.00
2018-04-06T12:15:23.314Z,45984.00
2018-04-06T12:16:23.295Z,47360.00
2018-04-06T12:17:23.257Z,50048.00
2018-04-06T12:18:23.217Z,48704.00
2018-04-06T12:19:23.224Z,50528.00
2018-04-06T12:20:23.166Z,50368.00
2018-04-06T12:21:23.153Z,53312.00
2018-04-06T12:22:23.144Z,60096.00
2018-04-06T12:23:23.104Z,59072.00
2018-04-06T12:24:23.109Z,55424.00
2018-04-06T12:25:23.100Z,54336.00